sensor_id;sensor_type;location;lat;lon;timestamp;temperature;humidity
35531;DHT22;21637;53.352;-6.356;2023-08-06T00:00:17;11.40;99.90
35531;DHT22;21637;53.352;-6.356;2023-08-06T00:02:43;11.40;99.90
35531;DHT22;21637;53.352;-6.356;2023-08-06T00:05:09;11.40;99.90
35531;DHT22;21637;53.352;-6.356;2023-08-06T00:07:34;11.40;99.90
35531;DHT22;21637;53.352;-6.356;2023-08-06T00:10:00;11.40;99.90
35531;DHT22;21637;53.352;-6.356;2023-08-06T00:12:26;11.30;99.90
35531;DHT22;21637;53.352;-6.356;2023-08-06T00:14:52;11.30;99.90
35531;DHT22;21637;53.352;-6.356;2023-08-06T00:17:18;11.30;99.90
35531;DHT22;21637;53.352;-6.356;2023-08-06T00:19:44;11.30;99.90
35531;DHT22;21637;53.352;-6.356;2023-08-06T00:22:10;11.40;99.90
35531;DHT22;21637;53.352;-6.356;2023-08-06T00:24:36;11.30;99.90
35531;DHT22;21637;53.352;-6.356;2023-08-06T00:27:02;11.20;99.90
35531;DHT22;21637;53.352;-6.356;2023-08-06T00:29:27;11.20;99.90
35531;DHT22;21637;53.352;-6.356;2023-08-06T00:31:53;11.20;99.90
35531;DHT22;21637;53.352;-6.356;2023-08-06T00:34:19;11.10;99.90
35531;DHT22;21637;53.352;-6.356;2023-08-06T00:36:45;11.10;99.90
35531;DHT22;21637;53.352;-6.356;2023-08-06T00:39:10;11.10;99.90
35531;DHT22;21637;53.352;-6.356;2023-08-06T00:41:36;11.10;99.90
35531;DHT22;21637;53.352;-6.356;2023-08-06T00:44:02;11.00;99.90
35531;DHT22;21637;53.352;-6.356;2023-08-06T00:46:28;11.00;99.90
35531;DHT22;21637;53.352;-6.356;2023-08-06T00:48:55;11.00;99.90
35531;DHT22;21637;53.352;-6.356;2023-08-06T00:51:22;10.90;99.90
35531;DHT22;21637;53.352;-6.356;2023-08-06T00:53:49;10.90;99.90
35531;DHT22;21637;53.352;-6.356;2023-08-06T00:56:15;10.90;99.90
35531;DHT22;21637;53.352;-6.356;2023-08-06T00:58:41;10.90;99.90
35531;DHT22;21637;53.352;-6.356;2023-08-06T01:01:07;10.90;99.90
35531;DHT22;21637;53.352;-6.356;2023-08-06T01:03:33;10.90;99.90
35531;DHT22;21637;53.352;-6.356;2023-08-06T01:05:59;10.90;99.90
35531;DHT22;21637;53.352;-6.356;2023-08-06T01:08:54;10.80;99.90
35531;DHT22;21637;53.352;-6.356;2023-08-06T01:11:44;10.80;99.90
35531;DHT22;21637;53.352;-6.356;2023-08-06T01:14:28;10.80;99.90
35531;DHT22;21637;53.352;-6.356;2023-08-06T01:16:58;10.80;99.90
35531;DHT22;21637;53.352;-6.356;2023-08-06T01:19:24;10.80;99.90
35531;DHT22;21637;53.352;-6.356;2023-08-06T01:21:49;10.80;99.90
35531;DHT22;21637;53.352;-6.356;2023-08-06T01:24:15;10.70;99.90
35531;DHT22;21637;53.352;-6.356;2023-08-06T01:27:07;10.70;99.90
35531;DHT22;21637;53.352;-6.356;2023-08-06T01:29:44;10.70;99.90
35531;DHT22;21637;53.352;-6.356;2023-08-06T01:32:12;10.70;99.90
35531;DHT22;21637;53.352;-6.356;2023-08-06T01:34:41;10.70;99.90
35531;DHT22;21637;53.352;-6.356;2023-08-06T01:37:09;10.70;99.90
35531;DHT22;21637;53.352;-6.356;2023-08-06T01:39:35;10.70;99.90
35531;DHT22;21637;53.352;-6.356;2023-08-06T01:42:01;10.60;99.90
35531;DHT22;21637;53.352;-6.356;2023-08-06T01:44:26;10.60;99.90
35531;DHT22;21637;53.352;-6.356;2023-08-06T01:46:52;10.60;99.90
35531;DHT22;21637;53.352;-6.356;2023-08-06T01:49:18;10.70;99.90
35531;DHT22;21637;53.352;-6.356;2023-08-06T01:51:44;10.60;99.90
35531;DHT22;21637;53.352;-6.356;2023-08-06T01:54:09;10.60;99.90
35531;DHT22;21637;53.352;-6.356;2023-08-06T01:56:35;10.60;99.90
35531;DHT22;21637;53.352;-6.356;2023-08-06T01:59:01;10.60;99.90
35531;DHT22;21637;53.352;-6.356;2023-08-06T02:01:26;10.50;99.90
35531;DHT22;21637;53.352;-6.356;2023-08-06T02:03:52;10.50;99.90
35531;DHT22;21637;53.352;-6.356;2023-08-06T02:06:18;10.50;99.90
35531;DHT22;21637;53.352;-6.356;2023-08-06T02:08:43;10.50;99.90
35531;DHT22;21637;53.352;-6.356;2023-08-06T02:11:09;10.50;99.90
35531;DHT22;21637;53.352;-6.356;2023-08-06T02:13:35;10.50;99.90
35531;DHT22;21637;53.352;-6.356;2023-08-06T02:16:00;10.50;99.90
35531;DHT22;21637;53.352;-6.356;2023-08-06T02:18:26;10.50;99.90
35531;DHT22;21637;53.352;-6.356;2023-08-06T02:20:59;10.50;99.90
35531;DHT22;21637;53.352;-6.356;2023-08-06T02:23:24;10.50;99.90
35531;DHT22;21637;53.352;-6.356;2023-08-06T02:26:03;10.50;99.90
35531;DHT22;21637;53.352;-6.356;2023-08-06T02:28:32;10.40;99.90
35531;DHT22;21637;53.352;-6.356;2023-08-06T02:30:57;10.40;99.90
35531;DHT22;21637;53.352;-6.356;2023-08-06T02:33:23;10.40;99.90
35531;DHT22;21637;53.352;-6.356;2023-08-06T02:35:49;10.40;99.90
35531;DHT22;21637;53.352;-6.356;2023-08-06T02:38:15;10.40;99.90
35531;DHT22;21637;53.352;-6.356;2023-08-06T02:40:44;10.40;99.90
35531;DHT22;21637;53.352;-6.356;2023-08-06T02:43:11;10.40;99.90
35531;DHT22;21637;53.352;-6.356;2023-08-06T02:45:36;10.40;99.90
35531;DHT22;21637;53.352;-6.356;2023-08-06T02:48:02;10.40;99.90
35531;DHT22;21637;53.352;-6.356;2023-08-06T02:50:28;10.40;99.90
35531;DHT22;21637;53.352;-6.356;2023-08-06T02:52:54;10.40;99.90
35531;DHT22;21637;53.352;-6.356;2023-08-06T02:55:20;10.40;99.90
35531;DHT22;21637;53.352;-6.356;2023-08-06T02:57:45;10.40;99.90
35531;DHT22;21637;53.352;-6.356;2023-08-06T03:00:11;10.40;99.90
35531;DHT22;21637;53.352;-6.356;2023-08-06T03:02:37;10.50;99.90
35531;DHT22;21637;53.352;-6.356;2023-08-06T03:05:03;10.50;99.90
35531;DHT22;21637;53.352;-6.356;2023-08-06T03:07:29;10.60;99.90
35531;DHT22;21637;53.352;-6.356;2023-08-06T03:09:55;10.60;99.90
35531;DHT22;21637;53.352;-6.356;2023-08-06T03:12:20;10.70;99.90
35531;DHT22;21637;53.352;-6.356;2023-08-06T03:14:46;10.80;99.90
35531;DHT22;21637;53.352;-6.356;2023-08-06T03:17:12;10.80;99.90
35531;DHT22;21637;53.352;-6.356;2023-08-06T03:19:38;10.90;99.90
35531;DHT22;21637;53.352;-6.356;2023-08-06T03:22:03;10.80;99.90
35531;DHT22;21637;53.352;-6.356;2023-08-06T03:24:29;10.90;99.90
35531;DHT22;21637;53.352;-6.356;2023-08-06T03:26:55;10.80;99.90
35531;DHT22;21637;53.352;-6.356;2023-08-06T03:29:20;10.90;99.90
35531;DHT22;21637;53.352;-6.356;2023-08-06T03:31:47;10.80;99.90
35531;DHT22;21637;53.352;-6.356;2023-08-06T03:34:13;10.80;99.90
35531;DHT22;21637;53.352;-6.356;2023-08-06T03:36:39;10.80;99.90
35531;DHT22;21637;53.352;-6.356;2023-08-06T03:39:04;10.90;99.90
35531;DHT22;21637;53.352;-6.356;2023-08-06T03:41:30;11.00;99.90
35531;DHT22;21637;53.352;-6.356;2023-08-06T03:43:56;11.00;99.90
35531;DHT22;21637;53.352;-6.356;2023-08-06T03:46:21;11.00;99.90
35531;DHT22;21637;53.352;-6.356;2023-08-06T03:48:47;11.00;99.90
35531;DHT22;21637;53.352;-6.356;2023-08-06T03:51:13;11.00;99.90
35531;DHT22;21637;53.352;-6.356;2023-08-06T03:53:38;11.00;99.90
35531;DHT22;21637;53.352;-6.356;2023-08-06T03:56:04;11.00;99.90
35531;DHT22;21637;53.352;-6.356;2023-08-06T03:58:30;11.00;99.90
35531;DHT22;21637;53.352;-6.356;2023-08-06T04:01:00;11.00;99.90
35531;DHT22;21637;53.352;-6.356;2023-08-06T04:03:26;11.00;99.90
35531;DHT22;21637;53.352;-6.356;2023-08-06T04:05:52;11.00;99.90
35531;DHT22;21637;53.352;-6.356;2023-08-06T04:08:17;11.00;99.90
35531;DHT22;21637;53.352;-6.356;2023-08-06T04:10:43;11.00;99.90
35531;DHT22;21637;53.352;-6.356;2023-08-06T04:13:09;10.90;99.90
35531;DHT22;21637;53.352;-6.356;2023-08-06T04:15:34;10.90;99.90
35531;DHT22;21637;53.352;-6.356;2023-08-06T04:18:00;10.90;99.90
35531;DHT22;21637;53.352;-6.356;2023-08-06T04:20:26;10.90;99.90
35531;DHT22;21637;53.352;-6.356;2023-08-06T04:22:54;10.90;99.90
35531;DHT22;21637;53.352;-6.356;2023-08-06T04:25:20;10.90;99.90
35531;DHT22;21637;53.352;-6.356;2023-08-06T04:27:49;10.80;99.90
35531;DHT22;21637;53.352;-6.356;2023-08-06T04:30:15;10.90;99.90
35531;DHT22;21637;53.352;-6.356;2023-08-06T04:32:41;10.80;99.90
35531;DHT22;21637;53.352;-6.356;2023-08-06T04:35:07;10.80;99.90
35531;DHT22;21637;53.352;-6.356;2023-08-06T04:37:32;10.90;99.90
35531;DHT22;21637;53.352;-6.356;2023-08-06T04:39:58;10.90;99.90
35531;DHT22;21637;53.352;-6.356;2023-08-06T04:42:24;10.80;99.90
35531;DHT22;21637;53.352;-6.356;2023-08-06T04:44:50;10.80;99.90
35531;DHT22;21637;53.352;-6.356;2023-08-06T04:47:16;10.80;99.90
35531;DHT22;21637;53.352;-6.356;2023-08-06T04:49:41;10.70;99.90
35531;DHT22;21637;53.352;-6.356;2023-08-06T04:52:07;10.70;99.90
35531;DHT22;21637;53.352;-6.356;2023-08-06T04:54:33;10.70;99.90
35531;DHT22;21637;53.352;-6.356;2023-08-06T04:56:59;10.70;99.90
35531;DHT22;21637;53.352;-6.356;2023-08-06T04:59:25;10.70;99.90
35531;DHT22;21637;53.352;-6.356;2023-08-06T05:01:50;10.70;99.90
35531;DHT22;21637;53.352;-6.356;2023-08-06T05:04:16;10.70;99.90
35531;DHT22;21637;53.352;-6.356;2023-08-06T05:06:42;10.70;99.90
35531;DHT22;21637;53.352;-6.356;2023-08-06T05:09:08;10.80;99.90
35531;DHT22;21637;53.352;-6.356;2023-08-06T05:11:33;10.80;99.90
35531;DHT22;21637;53.352;-6.356;2023-08-06T05:13:59;10.80;99.90
35531;DHT22;21637;53.352;-6.356;2023-08-06T05:16:24;10.80;99.90
35531;DHT22;21637;53.352;-6.356;2023-08-06T05:18:50;10.80;99.90
35531;DHT22;21637;53.352;-6.356;2023-08-06T05:21:16;10.80;99.90
35531;DHT22;21637;53.352;-6.356;2023-08-06T05:23:42;10.80;99.90
35531;DHT22;21637;53.352;-6.356;2023-08-06T05:26:08;10.90;99.90
35531;DHT22;21637;53.352;-6.356;2023-08-06T05:28:34;11.00;99.90
35531;DHT22;21637;53.352;-6.356;2023-08-06T05:31:04;11.00;99.90
35531;DHT22;21637;53.352;-6.356;2023-08-06T05:33:30;11.10;99.90
35531;DHT22;21637;53.352;-6.356;2023-08-06T05:35:56;11.10;99.90
35531;DHT22;21637;53.352;-6.356;2023-08-06T05:38:22;11.30;99.90
35531;DHT22;21637;53.352;-6.356;2023-08-06T05:40:47;11.30;99.90
35531;DHT22;21637;53.352;-6.356;2023-08-06T05:43:14;11.40;99.90
35531;DHT22;21637;53.352;-6.356;2023-08-06T05:45:44;11.50;99.90
35531;DHT22;21637;53.352;-6.356;2023-08-06T05:48:10;11.70;99.90
35531;DHT22;21637;53.352;-6.356;2023-08-06T05:50:36;11.90;99.90
35531;DHT22;21637;53.352;-6.356;2023-08-06T05:53:01;12.00;99.90
35531;DHT22;21637;53.352;-6.356;2023-08-06T05:55:27;12.00;99.90
35531;DHT22;21637;53.352;-6.356;2023-08-06T05:57:53;12.30;99.90
35531;DHT22;21637;53.352;-6.356;2023-08-06T06:00:19;12.40;99.90
35531;DHT22;21637;53.352;-6.356;2023-08-06T06:02:45;12.60;99.90
35531;DHT22;21637;53.352;-6.356;2023-08-06T06:05:11;12.70;99.90
35531;DHT22;21637;53.352;-6.356;2023-08-06T06:07:37;12.80;99.90
35531;DHT22;21637;53.352;-6.356;2023-08-06T06:10:02;13.00;99.90
35531;DHT22;21637;53.352;-6.356;2023-08-06T06:12:28;13.00;99.90
35531;DHT22;21637;53.352;-6.356;2023-08-06T06:14:54;13.20;99.90
35531;DHT22;21637;53.352;-6.356;2023-08-06T06:17:20;13.30;99.90
35531;DHT22;21637;53.352;-6.356;2023-08-06T06:19:45;13.50;99.90
35531;DHT22;21637;53.352;-6.356;2023-08-06T06:22:12;13.60;99.90
35531;DHT22;21637;53.352;-6.356;2023-08-06T06:24:38;13.60;99.90
35531;DHT22;21637;53.352;-6.356;2023-08-06T06:27:04;13.70;99.90
35531;DHT22;21637;53.352;-6.356;2023-08-06T06:29:29;13.70;99.90
35531;DHT22;21637;53.352;-6.356;2023-08-06T06:31:55;13.70;99.90
35531;DHT22;21637;53.352;-6.356;2023-08-06T06:34:21;13.70;99.90
35531;DHT22;21637;53.352;-6.356;2023-08-06T06:36:47;13.70;99.90
35531;DHT22;21637;53.352;-6.356;2023-08-06T06:39:13;13.70;99.90
35531;DHT22;21637;53.352;-6.356;2023-08-06T06:41:39;13.70;99.90
35531;DHT22;21637;53.352;-6.356;2023-08-06T06:44:05;13.80;99.90
35531;DHT22;21637;53.352;-6.356;2023-08-06T06:46:31;13.80;99.90
35531;DHT22;21637;53.352;-6.356;2023-08-06T06:48:57;13.70;99.90
35531;DHT22;21637;53.352;-6.356;2023-08-06T06:51:22;13.70;99.90
35531;DHT22;21637;53.352;-6.356;2023-08-06T06:53:48;13.70;99.90
35531;DHT22;21637;53.352;-6.356;2023-08-06T06:56:14;13.70;99.90
35531;DHT22;21637;53.352;-6.356;2023-08-06T06:58:39;13.80;99.90
35531;DHT22;21637;53.352;-6.356;2023-08-06T07:01:06;13.70;99.90
35531;DHT22;21637;53.352;-6.356;2023-08-06T07:03:32;13.80;99.90
35531;DHT22;21637;53.352;-6.356;2023-08-06T07:05:58;13.80;99.90
35531;DHT22;21637;53.352;-6.356;2023-08-06T07:08:25;13.80;99.90
35531;DHT22;21637;53.352;-6.356;2023-08-06T07:10:51;13.90;99.90
35531;DHT22;21637;53.352;-6.356;2023-08-06T07:13:24;13.80;99.90
35531;DHT22;21637;53.352;-6.356;2023-08-06T07:15:50;13.80;99.90
35531;DHT22;21637;53.352;-6.356;2023-08-06T07:18:15;13.90;99.90
35531;DHT22;21637;53.352;-6.356;2023-08-06T07:20:41;14.00;99.90
35531;DHT22;21637;53.352;-6.356;2023-08-06T07:23:07;14.00;99.90
35531;DHT22;21637;53.352;-6.356;2023-08-06T07:25:33;13.90;99.90
35531;DHT22;21637;53.352;-6.356;2023-08-06T07:27:58;13.90;99.90
35531;DHT22;21637;53.352;-6.356;2023-08-06T07:30:24;14.20;99.90
35531;DHT22;21637;53.352;-6.356;2023-08-06T07:32:50;14.30;99.90
35531;DHT22;21637;53.352;-6.356;2023-08-06T07:35:15;14.40;99.90
35531;DHT22;21637;53.352;-6.356;2023-08-06T07:37:41;14.50;99.90
35531;DHT22;21637;53.352;-6.356;2023-08-06T07:40:07;14.70;99.90
35531;DHT22;21637;53.352;-6.356;2023-08-06T07:42:34;14.80;99.90
35531;DHT22;21637;53.352;-6.356;2023-08-06T07:44:59;15.00;99.90
35531;DHT22;21637;53.352;-6.356;2023-08-06T07:47:25;15.00;99.90
35531;DHT22;21637;53.352;-6.356;2023-08-06T07:49:51;15.20;99.90
35531;DHT22;21637;53.352;-6.356;2023-08-06T07:52:17;15.40;99.90
35531;DHT22;21637;53.352;-6.356;2023-08-06T07:54:43;15.60;99.90
35531;DHT22;21637;53.352;-6.356;2023-08-06T07:57:08;15.60;99.90
35531;DHT22;21637;53.352;-6.356;2023-08-06T07:59:34;15.50;99.90
35531;DHT22;21637;53.352;-6.356;2023-08-06T08:02:00;15.50;99.90
35531;DHT22;21637;53.352;-6.356;2023-08-06T08:04:26;15.50;99.90
35531;DHT22;21637;53.352;-6.356;2023-08-06T08:06:52;15.50;99.90
35531;DHT22;21637;53.352;-6.356;2023-08-06T08:09:18;15.50;99.90
35531;DHT22;21637;53.352;-6.356;2023-08-06T08:11:44;15.50;99.90
35531;DHT22;21637;53.352;-6.356;2023-08-06T08:14:10;15.50;99.90
35531;DHT22;21637;53.352;-6.356;2023-08-06T08:16:35;15.60;99.90
35531;DHT22;21637;53.352;-6.356;2023-08-06T08:19:01;15.70;99.90
35531;DHT22;21637;53.352;-6.356;2023-08-06T08:21:28;15.80;99.90
35531;DHT22;21637;53.352;-6.356;2023-08-06T08:23:54;15.80;99.90
35531;DHT22;21637;53.352;-6.356;2023-08-06T08:26:19;15.80;99.90
35531;DHT22;21637;53.352;-6.356;2023-08-06T08:28:45;15.90;99.90
35531;DHT22;21637;53.352;-6.356;2023-08-06T08:31:11;16.20;99.90
35531;DHT22;21637;53.352;-6.356;2023-08-06T08:33:40;16.30;99.90
35531;DHT22;21637;53.352;-6.356;2023-08-06T08:36:06;16.50;99.90
35531;DHT22;21637;53.352;-6.356;2023-08-06T08:38:31;16.60;99.90
35531;DHT22;21637;53.352;-6.356;2023-08-06T08:40:57;16.60;99.90
35531;DHT22;21637;53.352;-6.356;2023-08-06T08:43:23;16.50;99.90
35531;DHT22;21637;53.352;-6.356;2023-08-06T08:45:53;16.60;99.90
35531;DHT22;21637;53.352;-6.356;2023-08-06T08:48:25;16.50;99.90
35531;DHT22;21637;53.352;-6.356;2023-08-06T08:50:52;16.60;99.90
35531;DHT22;21637;53.352;-6.356;2023-08-06T08:53:18;16.70;99.90
35531;DHT22;21637;53.352;-6.356;2023-08-06T08:55:47;16.80;99.90
35531;DHT22;21637;53.352;-6.356;2023-08-06T08:58:13;16.90;99.90
35531;DHT22;21637;53.352;-6.356;2023-08-06T09:00:42;17.00;99.90
35531;DHT22;21637;53.352;-6.356;2023-08-06T09:03:08;17.10;99.90
35531;DHT22;21637;53.352;-6.356;2023-08-06T09:05:33;17.10;99.90
35531;DHT22;21637;53.352;-6.356;2023-08-06T09:08:04;17.30;99.90
35531;DHT22;21637;53.352;-6.356;2023-08-06T09:10:30;17.40;99.90
35531;DHT22;21637;53.352;-6.356;2023-08-06T09:12:57;17.30;99.90
35531;DHT22;21637;53.352;-6.356;2023-08-06T09:15:27;17.10;99.90
35531;DHT22;21637;53.352;-6.356;2023-08-06T09:17:56;16.90;99.90
35531;DHT22;21637;53.352;-6.356;2023-08-06T09:20:21;16.70;99.90
35531;DHT22;21637;53.352;-6.356;2023-08-06T09:22:47;16.50;99.90
35531;DHT22;21637;53.352;-6.356;2023-08-06T09:25:24;16.40;99.90
35531;DHT22;21637;53.352;-6.356;2023-08-06T09:27:51;16.40;99.90
35531;DHT22;21637;53.352;-6.356;2023-08-06T09:30:30;16.30;99.90
35531;DHT22;21637;53.352;-6.356;2023-08-06T09:32:57;16.20;99.90
35531;DHT22;21637;53.352;-6.356;2023-08-06T09:35:23;16.30;99.90
35531;DHT22;21637;53.352;-6.356;2023-08-06T09:37:48;16.50;99.90
35531;DHT22;21637;53.352;-6.356;2023-08-06T09:40:31;16.70;99.90
35531;DHT22;21637;53.352;-6.356;2023-08-06T09:42:58;16.80;99.90
35531;DHT22;21637;53.352;-6.356;2023-08-06T09:45:32;16.90;99.90
35531;DHT22;21637;53.352;-6.356;2023-08-06T09:47:59;17.00;99.90
35531;DHT22;21637;53.352;-6.356;2023-08-06T09:50:32;17.10;99.90
35531;DHT22;21637;53.352;-6.356;2023-08-06T09:52:59;17.00;99.90
35531;DHT22;21637;53.352;-6.356;2023-08-06T09:55:25;17.00;99.90
35531;DHT22;21637;53.352;-6.356;2023-08-06T09:57:52;17.20;99.90
35531;DHT22;21637;53.352;-6.356;2023-08-06T10:00:18;17.40;99.90
35531;DHT22;21637;53.352;-6.356;2023-08-06T10:02:46;17.50;99.90
35531;DHT22;21637;53.352;-6.356;2023-08-06T10:05:11;17.60;99.90
35531;DHT22;21637;53.352;-6.356;2023-08-06T10:07:38;17.70;99.90
35531;DHT22;21637;53.352;-6.356;2023-08-06T10:10:06;17.80;99.90
35531;DHT22;21637;53.352;-6.356;2023-08-06T10:12:34;18.00;99.90
35531;DHT22;21637;53.352;-6.356;2023-08-06T10:15:04;18.20;99.90
35531;DHT22;21637;53.352;-6.356;2023-08-06T10:17:32;18.20;99.90
35531;DHT22;21637;53.352;-6.356;2023-08-06T10:19:59;18.30;99.90
35531;DHT22;21637;53.352;-6.356;2023-08-06T10:22:25;18.20;99.90
35531;DHT22;21637;53.352;-6.356;2023-08-06T10:24:53;17.80;99.90
35531;DHT22;21637;53.352;-6.356;2023-08-06T10:30:31;17.70;99.90
35531;DHT22;21637;53.352;-6.356;2023-08-06T10:33:01;17.70;99.90
35531;DHT22;21637;53.352;-6.356;2023-08-06T10:35:41;17.60;99.90
35531;DHT22;21637;53.352;-6.356;2023-08-06T10:38:10;17.60;99.90
35531;DHT22;21637;53.352;-6.356;2023-08-06T10:40:40;17.60;99.90
35531;DHT22;21637;53.352;-6.356;2023-08-06T10:43:07;17.40;99.90
35531;DHT22;21637;53.352;-6.356;2023-08-06T10:45:37;17.40;99.90
35531;DHT22;21637;53.352;-6.356;2023-08-06T10:48:04;17.60;99.90
35531;DHT22;21637;53.352;-6.356;2023-08-06T10:50:30;17.80;99.90
35531;DHT22;21637;53.352;-6.356;2023-08-06T10:52:57;18.00;99.90
35531;DHT22;21637;53.352;-6.356;2023-08-06T10:57:50;18.30;99.90
35531;DHT22;21637;53.352;-6.356;2023-08-06T11:00:16;18.50;99.90
35531;DHT22;21637;53.352;-6.356;2023-08-06T11:02:41;18.60;99.90
35531;DHT22;21637;53.352;-6.356;2023-08-06T11:05:09;18.50;99.90
35531;DHT22;21637;53.352;-6.356;2023-08-06T11:07:36;18.30;99.90
35531;DHT22;21637;53.352;-6.356;2023-08-06T11:10:07;18.10;99.90
35531;DHT22;21637;53.352;-6.356;2023-08-06T11:12:34;17.90;99.90
35531;DHT22;21637;53.352;-6.356;2023-08-06T11:15:00;17.40;99.90
35531;DHT22;21637;53.352;-6.356;2023-08-06T11:17:30;17.10;99.90
35531;DHT22;21637;53.352;-6.356;2023-08-06T11:19:59;16.90;99.90
35531;DHT22;21637;53.352;-6.356;2023-08-06T11:22:26;16.70;99.90
35531;DHT22;21637;53.352;-6.356;2023-08-06T11:24:53;16.70;99.90
35531;DHT22;21637;53.352;-6.356;2023-08-06T11:27:18;16.70;99.90
35531;DHT22;21637;53.352;-6.356;2023-08-06T11:29:44;16.70;99.90
35531;DHT22;21637;53.352;-6.356;2023-08-06T11:32:11;16.70;99.90
35531;DHT22;21637;53.352;-6.356;2023-08-06T11:34:38;16.70;99.90
35531;DHT22;21637;53.352;-6.356;2023-08-06T11:37:04;16.70;99.90
35531;DHT22;21637;53.352;-6.356;2023-08-06T11:39:46;16.80;99.90
35531;DHT22;21637;53.352;-6.356;2023-08-06T11:42:12;17.00;99.90
35531;DHT22;21637;53.352;-6.356;2023-08-06T11:44:37;17.10;99.90
35531;DHT22;21637;53.352;-6.356;2023-08-06T11:47:04;17.20;99.90
35531;DHT22;21637;53.352;-6.356;2023-08-06T11:49:48;17.40;99.90
35531;DHT22;21637;53.352;-6.356;2023-08-06T11:54:42;17.80;99.90
35531;DHT22;21637;53.352;-6.356;2023-08-06T11:57:08;18.00;99.90
35531;DHT22;21637;53.352;-6.356;2023-08-06T11:59:34;18.10;99.90
35531;DHT22;21637;53.352;-6.356;2023-08-06T12:02:05;18.30;99.90
35531;DHT22;21637;53.352;-6.356;2023-08-06T12:04:31;18.30;99.90
35531;DHT22;21637;53.352;-6.356;2023-08-06T12:07:07;18.20;99.90
35531;DHT22;21637;53.352;-6.356;2023-08-06T12:09:35;18.20;99.90
35531;DHT22;21637;53.352;-6.356;2023-08-06T12:12:01;18.10;99.90
35531;DHT22;21637;53.352;-6.356;2023-08-06T12:14:27;18.20;99.90
35531;DHT22;21637;53.352;-6.356;2023-08-06T12:16:53;18.30;99.90
35531;DHT22;21637;53.352;-6.356;2023-08-06T12:19:19;18.50;99.90
35531;DHT22;21637;53.352;-6.356;2023-08-06T12:21:44;18.70;99.90
35531;DHT22;21637;53.352;-6.356;2023-08-06T12:24:10;18.90;99.90
35531;DHT22;21637;53.352;-6.356;2023-08-06T12:26:36;19.00;99.90
35531;DHT22;21637;53.352;-6.356;2023-08-06T12:29:01;19.00;99.90
35531;DHT22;21637;53.352;-6.356;2023-08-06T12:31:27;19.10;99.90
35531;DHT22;21637;53.352;-6.356;2023-08-06T12:33:53;19.00;99.90
35531;DHT22;21637;53.352;-6.356;2023-08-06T12:36:18;18.80;99.90
35531;DHT22;21637;53.352;-6.356;2023-08-06T12:38:44;18.60;99.90
35531;DHT22;21637;53.352;-6.356;2023-08-06T12:41:10;18.60;99.90
35531;DHT22;21637;53.352;-6.356;2023-08-06T12:43:35;18.60;99.90
35531;DHT22;21637;53.352;-6.356;2023-08-06T12:46:01;18.80;99.90
35531;DHT22;21637;53.352;-6.356;2023-08-06T12:48:27;18.90;99.90
35531;DHT22;21637;53.352;-6.356;2023-08-06T12:50:52;18.90;99.90
35531;DHT22;21637;53.352;-6.356;2023-08-06T12:53:18;18.90;99.90
35531;DHT22;21637;53.352;-6.356;2023-08-06T12:55:46;18.90;99.90
35531;DHT22;21637;53.352;-6.356;2023-08-06T12:58:12;19.00;99.90
35531;DHT22;21637;53.352;-6.356;2023-08-06T13:00:37;19.00;99.90
35531;DHT22;21637;53.352;-6.356;2023-08-06T13:03:03;19.00;99.90
35531;DHT22;21637;53.352;-6.356;2023-08-06T13:05:29;18.90;99.90
35531;DHT22;21637;53.352;-6.356;2023-08-06T13:07:54;18.90;99.90
35531;DHT22;21637;53.352;-6.356;2023-08-06T13:10:20;18.80;99.90
35531;DHT22;21637;53.352;-6.356;2023-08-06T13:12:47;18.80;99.90
35531;DHT22;21637;53.352;-6.356;2023-08-06T13:15:12;18.90;99.90
35531;DHT22;21637;53.352;-6.356;2023-08-06T13:17:39;18.90;99.90
35531;DHT22;21637;53.352;-6.356;2023-08-06T13:20:06;19.10;99.90
35531;DHT22;21637;53.352;-6.356;2023-08-06T13:22:32;19.20;99.90
35531;DHT22;21637;53.352;-6.356;2023-08-06T13:24:57;19.30;99.90
35531;DHT22;21637;53.352;-6.356;2023-08-06T13:27:23;19.40;99.90
35531;DHT22;21637;53.352;-6.356;2023-08-06T13:29:49;19.50;99.90
35531;DHT22;21637;53.352;-6.356;2023-08-06T13:32:14;19.60;99.90
35531;DHT22;21637;53.352;-6.356;2023-08-06T13:34:40;19.60;99.90
35531;DHT22;21637;53.352;-6.356;2023-08-06T13:37:06;19.60;99.90
35531;DHT22;21637;53.352;-6.356;2023-08-06T13:39:31;19.60;99.90
35531;DHT22;21637;53.352;-6.356;2023-08-06T13:41:57;19.70;99.90
35531;DHT22;21637;53.352;-6.356;2023-08-06T13:44:23;19.90;99.90
35531;DHT22;21637;53.352;-6.356;2023-08-06T13:46:49;20.00;99.90
35531;DHT22;21637;53.352;-6.356;2023-08-06T13:49:14;19.80;99.90
35531;DHT22;21637;53.352;-6.356;2023-08-06T13:51:40;19.70;99.90
35531;DHT22;21637;53.352;-6.356;2023-08-06T13:54:06;19.60;99.90
35531;DHT22;21637;53.352;-6.356;2023-08-06T13:56:32;19.40;99.90
35531;DHT22;21637;53.352;-6.356;2023-08-06T13:58:58;19.30;99.90
35531;DHT22;21637;53.352;-6.356;2023-08-06T14:01:24;19.40;99.90
35531;DHT22;21637;53.352;-6.356;2023-08-06T14:03:49;19.40;99.90
35531;DHT22;21637;53.352;-6.356;2023-08-06T14:06:15;19.20;99.90
35531;DHT22;21637;53.352;-6.356;2023-08-06T14:08:41;19.20;99.90
35531;DHT22;21637;53.352;-6.356;2023-08-06T14:11:06;19.20;99.90
35531;DHT22;21637;53.352;-6.356;2023-08-06T14:13:32;19.20;99.90
35531;DHT22;21637;53.352;-6.356;2023-08-06T14:15:58;19.20;99.90
35531;DHT22;21637;53.352;-6.356;2023-08-06T14:18:24;19.30;99.90
35531;DHT22;21637;53.352;-6.356;2023-08-06T14:20:50;19.30;99.90
35531;DHT22;21637;53.352;-6.356;2023-08-06T14:23:16;19.40;99.90
35531;DHT22;21637;53.352;-6.356;2023-08-06T14:25:41;19.30;99.90
35531;DHT22;21637;53.352;-6.356;2023-08-06T14:28:07;19.20;99.90
35531;DHT22;21637;53.352;-6.356;2023-08-06T14:30:34;19.30;99.90
35531;DHT22;21637;53.352;-6.356;2023-08-06T14:33:00;19.50;99.90
35531;DHT22;21637;53.352;-6.356;2023-08-06T14:35:26;19.60;99.90
35531;DHT22;21637;53.352;-6.356;2023-08-06T14:37:52;19.70;99.90
35531;DHT22;21637;53.352;-6.356;2023-08-06T14:40:18;19.80;99.90
35531;DHT22;21637;53.352;-6.356;2023-08-06T14:42:43;20.10;99.90
35531;DHT22;21637;53.352;-6.356;2023-08-06T14:45:09;20.20;99.90
35531;DHT22;21637;53.352;-6.356;2023-08-06T14:47:35;20.30;99.90
35531;DHT22;21637;53.352;-6.356;2023-08-06T14:50:01;20.30;99.90
35531;DHT22;21637;53.352;-6.356;2023-08-06T14:52:26;20.40;99.90
35531;DHT22;21637;53.352;-6.356;2023-08-06T14:54:52;20.30;99.90
35531;DHT22;21637;53.352;-6.356;2023-08-06T14:57:20;20.20;99.90
35531;DHT22;21637;53.352;-6.356;2023-08-06T14:59:47;20.10;99.90
35531;DHT22;21637;53.352;-6.356;2023-08-06T15:02:13;20.10;99.90
35531;DHT22;21637;53.352;-6.356;2023-08-06T15:04:39;19.90;99.90
35531;DHT22;21637;53.352;-6.356;2023-08-06T15:07:04;19.90;99.90
35531;DHT22;21637;53.352;-6.356;2023-08-06T15:09:30;19.80;99.90
35531;DHT22;21637;53.352;-6.356;2023-08-06T15:11:56;19.80;99.90
35531;DHT22;21637;53.352;-6.356;2023-08-06T15:14:21;19.70;99.90
35531;DHT22;21637;53.352;-6.356;2023-08-06T15:16:47;19.70;99.90
35531;DHT22;21637;53.352;-6.356;2023-08-06T15:19:13;19.80;99.90